Time,TemperatureF,DewpointF,PressureIn,WindDirection,WindDirectionDegrees,WindSpeedMPH,WindSpeedGustMPH,Humidity,HourlyPrecipIn,Conditions,Clouds,dailyrainin,SoftwareType,DateUTC
2013-12-09 09:25:00,33.4,31.1,30.19,ESE,119,2.0,2.0,91,0.00,,,0.01,Wunderground v.1.15,2013-12-09 14:25:00,
2013-12-09 09:30:00,33.4,31.1,30.18,SE,132,2.0,4.0,91,0.00,,,0.01,Wunderground v.1.15,2013-12-09 14:30:00,
2013-12-09 09:35:00,33.4,31.1,30.17,SE,124,2.0,2.0,91,0.00,,,0.01,Wunderground v.1.15,2013-12-09 14:35:00,
2013-12-09 09:40:00,33.4,31.1,30.17,SE,129,2.0,2.0,91,0.00,,,0.01,Wunderground v.1.15,2013-12-09 14:40:00,
2013-12-09 09:45:00,33.5,31.2,30.17,SE,129,1.0,1.0,91,0.00,,,0.01,Wunderground v.1.15,2013-12-09 14:45:00,
2013-12-09 09:50:00,33.5,31.2,30.17,ESE,117,1.0,1.0,91,0.00,,,0.01,Wunderground v.1.15,2013-12-09 14:50:00,
2013-12-09 09:55:00,33.6,31.3,30.17,SE,127,1.0,1.0,91,0.00,,,0.01,Wunderground v.1.15,2013-12-09 14:55:00,
2013-12-09 10:00:00,33.7,31.4,30.19,SE,127,1.0,1.0,91,0.00,,,0.01,Wunderground v.1.15,2013-12-09 15:00:00,
2013-12-09 10:05:00,33.7,31.4,30.19,SE,127,1.0,2.0,91,0.00,,,0.01,Wunderground v.1.15,2013-12-09 15:05:00,
2013-12-09 10:10:00,33.7,31.4,30.18,SE,127,1.0,2.0,91,0.00,,,0.01,Wunderground v.1.15,2013-12-09 15:10:00,
2013-12-09 10:15:00,33.8,31.5,30.19,SE,127,1.0,2.0,91,0.00,,,0.01,Wunderground v.1.15,2013-12-09 15:15:00,
2013-12-09 10:25:00,34.0,31.6,30.19,SE,127,0.0,0.0,91,0.00,,,0.01,Wunderground v.1.15,2013-12-09 15:25:00,
2013-12-09 10:30:00,34.2,31.8,30.18,SE,127,0.0,0.0,91,0.00,,,0.01,Wunderground v.1.15,2013-12-09 15:30:00,
2013-12-09 10:35:00,34.3,31.9,30.17,SE,127,0.0,0.0,91,0.00,,,0.01,Wunderground v.1.15,2013-12-09 15:35:00,
2013-12-09 10:40:00,34.4,32.0,30.16,SE,127,0.0,0.0,91,0.00,,,0.01,Wunderground v.1.15,2013-12-09 15:40:00,
2013-12-09 10:45:00,34.6,32.2,30.15,SE,127,0.0,0.0,91,0.00,,,0.01,Wunderground v.1.15,2013-12-09 15:45:00,
2013-12-09 10:50:00,34.8,32.4,30.14,SE,127,1.0,1.0,91,0.00,,,0.01,Wunderground v.1.15,2013-12-09 15:50:00,
2013-12-09 11:00:00,35.2,32.8,30.14,SE,127,0.0,0.0,91,0.00,,,0.01,Wunderground v.1.15,2013-12-09 16:00:00,
2013-12-09 11:05:00,35.3,32.9,30.13,SE,128,1.0,1.0,91,0.00,,,0.01,Wunderground v.1.15,2013-12-09 16:05:00,
2013-12-09 11:15:00,35.7,33.3,30.12,SE,128,1.0,2.0,91,0.18,,,0.03,Wunderground v.1.15,2013-12-09 16:15:00,
2013-12-09 11:20:00,35.9,33.5,30.11,SE,128,1.0,1.0,91,0.09,,,0.03,Wunderground v.1.15,2013-12-09 16:20:00,
2013-12-09 11:25:00,36.0,33.6,30.11,SE,128,1.0,1.0,91,0.05,,,0.03,Wunderground v.1.15,2013-12-09 16:25:00,
2013-12-09 14:00:00,38.4,36.0,29.96,SE,134,0.0,0.0,91,0.04,,,0.06,Wunderground v.1.15,2013-12-09 19:00:00,
2013-12-09 14:05:00,38.5,36.1,29.96,SE,134,0.0,0.0,91,0.04,,,0.06,Wunderground v.1.15,2013-12-09 19:05:00,
2013-12-09 14:10:00,38.5,36.1,29.96,SE,134,0.0,0.0,91,0.04,,,0.06,Wunderground v.1.15,2013-12-09 19:10:00,
2013-12-09 14:20:00,38.7,36.3,29.95,SE,134,0.0,0.0,91,0.00,,,0.07,Wunderground v.1.15,2013-12-09 19:20:00,
2013-12-09 14:25:00,38.7,36.3,29.94,SE,134,0.0,0.0,91,0.00,,,0.07,Wunderground v.1.15,2013-12-09 19:25:00,
2013-12-09 14:35:00,38.7,36.3,29.94,SE,134,1.0,1.0,91,0.05,,,0.08,Wunderground v.1.15,2013-12-09 19:35:00,
2013-12-09 14:40:00,38.8,36.4,29.94,SE,134,0.0,0.0,91,0.05,,,0.08,Wunderground v.1.15,2013-12-09 19:40:00,
2013-12-09 14:50:00,38.9,36.5,29.93,SE,134,0.0,0.0,91,0.00,,,0.08,Wunderground v.1.15,2013-12-09 19:50:00,
2013-12-09 15:00:00,39.1,36.7,29.93,SE,134,0.0,0.0,91,0.00,,,0.09,Wunderground v.1.15,2013-12-09 20:00:00,
2013-12-09 15:10:00,39.3,36.9,29.93,SE,134,0.0,0.0,91,0.04,,,0.10,Wunderground v.1.15,2013-12-09 20:10:00,
2013-12-09 15:15:00,39.4,37.0,29.93,SE,134,0.0,0.0,91,0.04,,,0.10,Wunderground v.1.15,2013-12-09 20:15:00,
2013-12-09 15:20:00,39.5,37.1,29.93,SE,134,0.0,0.0,91,0.04,,,0.10,Wunderground v.1.15,2013-12-09 20:20:00,
2013-12-09 15:30:00,39.6,37.2,29.92,SE,134,0.0,0.0,91,0.00,,,0.10,Wunderground v.1.15,2013-12-09 20:30:00,